createdAt,value
2022-09-03T00:00:13.462Z,17.17
2022-09-03T00:03:23.222Z,14.75
2022-09-03T00:06:39.631Z,11.52
2022-09-03T00:09:36.920Z,11.93
2022-09-03T00:12:32.788Z,12.35
2022-09-03T00:15:24.895Z,15.07
2022-09-03T00:18:23.964Z,17.73
2022-09-03T00:21:20.784Z,19.20
2022-09-03T00:24:14.341Z,10.43
2022-09-03T00:27:09.875Z,17.70
2022-09-03T00:30:04.816Z,13.18
2022-09-03T00:33:08.350Z,10.32
2022-09-03T00:36:08.636Z,13.25
2022-09-03T00:39:00.562Z,13.73
2022-09-03T00:42:20.418Z,13.02
2022-09-03T00:45:17.779Z,15.48
2022-09-03T00:48:27.910Z,17.48
2022-09-03T00:51:42.564Z,13.27
2022-09-03T00:54:46.091Z,19.48
2022-09-03T00:57:58.333Z,16.15
2022-09-03T01:00:48.873Z,18.20
2022-09-03T01:03:57.009Z,15.77
2022-09-03T01:07:01.742Z,13.77
2022-09-03T01:10:09.604Z,13.65
2022-09-03T01:13:12.974Z,14.93
2022-09-03T01:16:05.516Z,14.05
2022-09-03T01:19:18.026Z,11.35
2022-09-03T01:22:32.327Z,11.57
2022-09-03T01:25:29.522Z,12.95
2022-09-03T01:28:34.209Z,11.55
2022-09-03T01:31:45.163Z,12.23
2022-09-03T01:34:38.387Z,8.77
2022-09-03T01:37:40.577Z,11.88
2022-09-03T01:40:40.565Z,12.07
2022-09-03T01:43:53.204Z,9.35
2022-09-03T01:46:47.215Z,12.70
2022-09-03T01:49:38.149Z,13.50
2022-09-03T01:52:41.969Z,9.48
2022-09-03T01:55:36.089Z,8.88
2022-09-03T01:58:29.155Z,11.98
2022-09-03T02:01:30.909Z,8.60
2022-09-03T02:04:26.222Z,10.48
2022-09-03T02:07:16.558Z,11.98
2022-09-03T02:10:15.297Z,11.20
2022-09-03T02:13:28.766Z,11.68
2022-09-03T02:16:25.709Z,10.05
2022-09-03T02:19:18.281Z,10.52
2022-09-03T02:22:08.926Z,7.55
2022-09-03T02:24:58.646Z,7.90
2022-09-03T02:27:49.317Z,10.20
2022-09-03T02:30:39.370Z,8.65
2022-09-03T02:33:29.755Z,9.13
2022-09-03T02:36:24.224Z,12.70
2022-09-03T02:39:16.015Z,10.23
2022-09-03T02:42:06.454Z,11.73
2022-09-03T02:45:01.930Z,11.10
2022-09-03T02:47:55.432Z,8.90
2022-09-03T02:50:44.976Z,9.20
2022-09-03T02:53:35.174Z,13.57
2022-09-03T02:56:29.381Z,12.90
2022-09-03T02:59:20.044Z,16.30
2022-09-03T03:02:10.392Z,21.02
2022-09-03T03:05:00.467Z,17.58
2022-09-03T03:07:50.673Z,34.47
2022-09-03T03:10:40.617Z,36.08
2022-09-03T03:13:32.135Z,33.42
2022-09-03T03:16:22.911Z,19.20
2022-09-03T03:19:13.002Z,12.43
2022-09-03T03:22:02.578Z,10.75
2022-09-03T03:24:56.767Z,15.27
2022-09-03T03:27:50.327Z,19.00
2022-09-03T03:30:41.858Z,24.65
2022-09-03T03:33:32.212Z,21.15
2022-09-03T03:36:22.196Z,24.90
2022-09-03T03:39:14.236Z,17.40
2022-09-03T03:42:03.703Z,18.60
2022-09-03T03:44:53.489Z,23.85
2022-09-03T03:47:44.084Z,23.05
2022-09-03T03:50:34.461Z,22.70
2022-09-03T03:53:25.156Z,19.27
2022-09-03T03:56:16.543Z,21.05
2022-09-03T03:59:06.668Z,20.02
2022-09-03T04:01:58.166Z,23.85
2022-09-03T04:04:48.034Z,20.67
2022-09-03T04:07:38.967Z,19.55
2022-09-03T04:10:29.159Z,24.83
2022-09-03T04:13:20.481Z,24.35
2022-09-03T04:16:22.004Z,17.20
2022-09-03T04:19:12.074Z,19.83
2022-09-03T04:22:02.763Z,24.08
2022-09-03T04:24:52.752Z,21.08
2022-09-03T04:27:42.481Z,22.55
2022-09-03T04:30:32.620Z,28.67
2022-09-03T04:33:26.907Z,24.63
2022-09-03T04:36:25.506Z,19.27
2022-09-03T04:39:17.232Z,21.35
2022-09-03T04:42:06.988Z,19.50
2022-09-03T04:44:57.138Z,14.43
2022-09-03T04:47:57.665Z,19.90
2022-09-03T04:50:47.738Z,19.83
2022-09-03T04:53:43.107Z,17.00
2022-09-03T04:56:37.188Z,16.40
2022-09-03T04:59:27.375Z,13.35
2022-09-03T05:02:17.691Z,18.23
2022-09-03T05:05:08.225Z,20.38
2022-09-03T05:08:00.625Z,17.67
2022-09-03T05:11:02.515Z,29.55
2022-09-03T05:13:53.405Z,27.35
2022-09-03T05:16:43.949Z,26.30
2022-09-03T05:19:42.968Z,25.90
2022-09-03T05:22:34.352Z,29.52
2022-09-03T05:25:25.499Z,27.60
2022-09-03T05:28:15.583Z,20.70
2022-09-03T05:31:07.215Z,23.13
2022-09-03T05:34:01.787Z,22.00
2022-09-03T05:36:52.296Z,24.90
2022-09-03T05:39:42.539Z,23.05
2022-09-03T05:42:36.584Z,21.92
2022-09-03T05:45:26.868Z,24.35
2022-09-03T05:48:16.448Z,19.38
2022-09-03T05:51:17.771Z,21.27
2022-09-03T05:54:10.136Z,23.17
2022-09-03T05:57:02.576Z,20.63
2022-09-03T05:59:53.708Z,21.58
2022-09-03T06:02:44.794Z,19.75
2022-09-03T06:05:35.308Z,18.90
2022-09-03T06:08:25.910Z,17.92
2022-09-03T06:11:16.139Z,17.58
2022-09-03T06:14:09.460Z,21.05
2022-09-03T06:16:59.411Z,13.88
2022-09-03T06:19:49.363Z,14.60
2022-09-03T06:22:39.331Z,16.80
2022-09-03T06:25:29.143Z,20.75
2022-09-03T06:28:23.242Z,20.33
2022-09-03T06:31:17.216Z,17.05
2022-09-03T06:34:07.541Z,21.42
2022-09-03T06:37:00.896Z,19.58
2022-09-03T06:39:52.766Z,15.82
2022-09-03T06:42:45.827Z,16.45
2022-09-03T06:45:35.866Z,15.75
2022-09-03T06:48:25.913Z,19.23
2022-09-03T06:51:23.213Z,22.20
2022-09-03T06:54:14.797Z,19.65
2022-09-03T06:57:05.734Z,15.45
2022-09-03T06:59:56.835Z,20.50
2022-09-03T07:02:46.614Z,21.45
2022-09-03T07:05:36.689Z,21.25
2022-09-03T07:08:26.094Z,21.77
2022-09-03T07:11:20.861Z,14.23
2022-09-03T07:14:10.728Z,20.35
2022-09-03T07:17:00.714Z,18.75
2022-09-03T07:19:50.666Z,18.08
2022-09-03T07:22:40.347Z,19.48
2022-09-03T07:25:32.312Z,17.55
2022-09-03T07:28:24.145Z,22.30
2022-09-03T07:31:17.086Z,31.50
2022-09-03T07:34:10.164Z,27.55
2022-09-03T07:37:00.545Z,31.08
2022-09-03T07:39:51.963Z,23.00
2022-09-03T07:42:42.446Z,22.08
2022-09-03T07:45:33.161Z,20.60
2022-09-03T07:48:22.903Z,22.65
2022-09-03T07:51:12.796Z,22.92
2022-09-03T07:54:06.697Z,20.02
2022-09-03T07:56:56.889Z,23.73
2022-09-03T07:59:47.336Z,20.63
2022-09-03T08:02:37.759Z,10.65
2022-09-03T08:05:27.987Z,34.88
2022-09-03T08:08:19.397Z,27.77
2022-09-03T08:11:14.665Z,15.73
2022-09-03T08:14:07.729Z,22.08
2022-09-03T08:16:57.472Z,27.10
2022-09-03T08:19:48.279Z,30.42
2022-09-03T08:22:39.725Z,30.83
2022-09-03T08:25:30.301Z,19.20
2022-09-03T08:28:20.241Z,24.58
2022-09-03T08:31:15.097Z,23.83
2022-09-03T08:34:07.927Z,31.50
2022-09-03T08:36:57.952Z,33.35
2022-09-03T08:39:48.356Z,25.95
2022-09-03T08:43:11.098Z,22.42
2022-09-03T08:46:01.927Z,16.50
2022-09-03T08:48:55.435Z,21.75
2022-09-03T08:51:49.414Z,15.38
2022-09-03T08:54:39.823Z,10.60
2022-09-03T08:57:33.904Z,12.02
2022-09-03T09:00:23.500Z,16.10
2022-09-03T09:03:32.319Z,15.82
2022-09-03T09:06:48.908Z,19.02
2022-09-03T09:09:44.675Z,18.60
2022-09-03T09:12:46.643Z,21.30
2022-09-03T09:15:36.971Z,24.42
2022-09-03T09:18:49.634Z,31.85
2022-09-03T09:21:47.485Z,23.67
2022-09-03T09:24:47.413Z,19.85
2022-09-03T09:27:37.238Z,20.83
2022-09-03T09:30:27.998Z,20.33
2022-09-03T09:33:19.984Z,17.67
2022-09-03T09:36:16.892Z,22.05
2022-09-03T09:39:17.277Z,22.52
2022-09-03T09:42:13.332Z,23.95
2022-09-03T09:45:12.528Z,22.40
2022-09-03T09:48:02.755Z,23.92
2022-09-03T09:50:52.360Z,26.63
2022-09-03T09:53:43.192Z,20.95
2022-09-03T09:56:33.709Z,29.45
2022-09-03T09:59:23.338Z,22.80
2022-09-03T10:02:22.194Z,20.45
2022-09-03T10:05:35.083Z,22.33
2022-09-03T10:08:26.853Z,21.88
2022-09-03T10:11:18.822Z,16.30
2022-09-03T10:14:51.057Z,15.27
2022-09-03T10:17:49.550Z,13.82
2022-09-03T10:20:39.441Z,16.77
2022-09-03T10:23:30.671Z,19.13
2022-09-03T10:26:23.799Z,23.40
2022-09-03T10:29:17.584Z,24.45
2022-09-03T10:32:41.917Z,23.95
2022-09-03T10:35:39.643Z,20.92
2022-09-03T10:38:35.975Z,25.10
2022-09-03T10:41:31.859Z,22.10
2022-09-03T10:44:43.593Z,25.05
2022-09-03T10:48:11.898Z,24.08
2022-09-03T10:51:07.841Z,34.53
2022-09-03T10:54:30.404Z,32.22
2022-09-03T10:57:39.120Z,39.25
2022-09-03T11:00:32.190Z,36.50
2022-09-03T11:03:34.334Z,33.45
2022-09-03T11:06:29.669Z,36.05
2022-09-03T11:09:23.346Z,33.70
2022-09-03T11:12:22.848Z,35.92
2022-09-03T11:15:20.488Z,32.28
2022-09-03T11:18:22.850Z,39.08
2022-09-03T11:21:16.258Z,71.93
2022-09-03T11:24:26.142Z,38.13
2022-09-03T11:27:19.000Z,42.35
2022-09-03T11:30:15.672Z,40.05
2022-09-03T11:33:11.024Z,35.20
2022-09-03T11:36:03.212Z,35.72
2022-09-03T11:38:53.043Z,40.88
2022-09-03T11:41:42.839Z,32.67
2022-09-03T11:44:51.354Z,31.90
2022-09-03T11:47:46.629Z,34.22
2022-09-03T11:53:37.464Z,30.38
2022-09-03T11:56:27.415Z,31.70
2022-09-03T11:59:25.937Z,26.33
2022-09-03T12:02:28.862Z,27.50
2022-09-03T12:05:39.867Z,29.08
2022-09-03T12:08:55.877Z,23.08
2022-09-03T12:11:58.612Z,25.65
2022-09-03T12:15:12.570Z,22.42
2022-09-03T12:18:22.061Z,27.27
2022-09-03T12:21:16.911Z,28.20
2022-09-03T12:24:06.311Z,22.40
2022-09-03T12:26:59.029Z,23.75
2022-09-03T12:30:03.336Z,22.08
2022-09-03T12:32:54.033Z,21.60
2022-09-03T12:35:59.063Z,22.98
2022-09-03T12:39:10.360Z,25.80
2022-09-03T12:42:07.937Z,21.20
2022-09-03T12:44:57.701Z,20.92
2022-09-03T12:47:49.118Z,24.30
2022-09-03T12:50:42.545Z,23.70
2022-09-03T12:53:38.647Z,23.10
2022-09-03T12:56:30.377Z,25.40
2022-09-03T12:59:21.018Z,23.25
2022-09-03T13:02:38.952Z,22.95
2022-09-03T13:05:35.767Z,22.42
2022-09-03T13:08:30.012Z,25.73
2022-09-03T13:11:25.134Z,24.75
2022-09-03T13:14:18.908Z,26.88
2022-09-03T13:17:27.438Z,20.95
2022-09-03T13:20:27.444Z,23.27
2022-09-03T13:23:58.738Z,22.45
2022-09-03T13:27:11.782Z,20.23
2022-09-03T13:30:21.854Z,23.75
2022-09-03T13:33:36.377Z,22.20
2022-09-03T13:36:53.041Z,21.30
2022-09-03T13:39:53.794Z,21.75
2022-09-03T13:42:56.510Z,23.05
2022-09-03T13:45:59.607Z,19.10
2022-09-03T13:49:28.961Z,20.77
2022-09-03T13:52:58.730Z,21.73
2022-09-03T13:56:06.526Z,23.27
2022-09-03T13:59:03.518Z,21.08
2022-09-03T14:02:20.283Z,25.13
2022-09-03T14:05:28.544Z,25.05
2022-09-03T14:08:38.899Z,24.70
2022-09-03T14:11:53.217Z,24.63
2022-09-03T14:15:10.626Z,27.48
2022-09-03T14:18:25.045Z,32.53
2022-09-03T14:21:23.632Z,20.88
2022-09-03T14:24:46.270Z,21.23
2022-09-03T14:27:37.389Z,25.40
2022-09-03T14:30:46.071Z,32.17
2022-09-03T14:33:40.549Z,24.88
2022-09-03T14:36:58.967Z,20.17
2022-09-03T14:39:58.210Z,20.02
2022-09-03T14:42:58.424Z,20.48
2022-09-03T14:46:09.716Z,20.15
2022-09-03T14:49:02.406Z,16.42
2022-09-03T14:52:22.022Z,18.23
2022-09-03T14:55:16.025Z,12.48
2022-09-03T14:58:15.076Z,16.85
2022-09-03T15:01:17.530Z,15.13
2022-09-03T15:04:09.780Z,15.88
2022-09-03T15:07:15.731Z,11.48
2022-09-03T15:10:22.641Z,13.82
2022-09-03T15:13:26.835Z,11.10
2022-09-03T15:16:34.886Z,12.40
2022-09-03T15:19:50.671Z,14.90
2022-09-03T15:23:19.154Z,13.68
2022-09-03T15:26:23.750Z,14.95
2022-09-03T15:29:25.378Z,13.93
2022-09-03T15:32:28.265Z,14.38
2022-09-03T15:36:04.962Z,14.65
2022-09-03T15:39:18.260Z,17.00
2022-09-03T15:42:25.196Z,15.95
2022-09-03T15:45:42.514Z,17.15
2022-09-03T15:48:34.871Z,17.13
2022-09-03T15:51:36.519Z,16.85
2022-09-03T15:54:48.306Z,15.63
2022-09-03T15:57:48.761Z,17.83
2022-09-03T16:01:05.956Z,16.05
2022-09-03T16:04:10.888Z,18.00
2022-09-03T16:07:11.755Z,20.30
2022-09-03T16:10:26.306Z,19.00
2022-09-03T16:13:34.004Z,23.00
2022-09-03T16:16:25.946Z,23.52
2022-09-03T16:19:23.533Z,21.25
2022-09-03T16:22:24.955Z,25.58
2022-09-03T16:25:24.646Z,21.27
2022-09-03T16:28:48.685Z,23.73
2022-09-03T16:31:50.649Z,21.58
2022-09-03T16:34:51.399Z,21.00
2022-09-03T16:37:41.574Z,22.15
2022-09-03T16:40:49.427Z,20.13
2022-09-03T16:44:00.275Z,20.38
2022-09-03T16:46:56.253Z,16.23
2022-09-03T16:50:22.153Z,20.15
2022-09-03T16:53:15.428Z,16.73
2022-09-03T16:56:19.416Z,15.63
2022-09-03T16:59:34.194Z,15.18
2022-09-03T17:02:42.849Z,16.92
2022-09-03T17:05:48.629Z,16.00
2022-09-03T17:08:38.716Z,15.38
2022-09-03T17:12:01.485Z,14.48
2022-09-03T17:15:28.485Z,13.60
2022-09-03T17:18:51.587Z,14.10
2022-09-03T17:22:25.491Z,12.15
2022-09-03T17:25:36.144Z,16.42
2022-09-03T17:29:20.786Z,11.30
2022-09-03T17:32:36.139Z,15.23
2022-09-03T17:35:56.666Z,12.10
2022-09-03T17:38:46.369Z,12.27
2022-09-03T17:41:55.145Z,10.82
2022-09-03T17:44:56.461Z,15.25
2022-09-03T17:48:14.374Z,12.45
2022-09-03T17:51:08.603Z,13.45
2022-09-03T17:54:13.426Z,13.13
2022-09-03T17:57:23.289Z,14.35
2022-09-03T18:00:14.407Z,11.30
2022-09-03T18:03:29.902Z,15.40
2022-09-03T18:06:39.468Z,12.88
2022-09-03T18:09:44.749Z,11.07
2022-09-03T18:12:48.510Z,13.60
2022-09-03T18:15:58.535Z,14.48
2022-09-03T18:18:53.182Z,12.88
2022-09-03T18:22:00.648Z,15.60
2022-09-03T18:25:20.192Z,13.77
2022-09-03T18:28:30.307Z,16.27
2022-09-03T18:31:37.753Z,15.20
2022-09-03T18:34:56.805Z,10.77
2022-09-03T18:38:04.304Z,13.18
2022-09-03T18:41:30.618Z,13.27
2022-09-03T18:45:11.900Z,14.27
2022-09-03T18:48:39.877Z,16.38
2022-09-03T18:51:50.512Z,14.60
2022-09-03T18:55:30.848Z,12.35
2022-09-03T18:58:59.353Z,12.68
2022-09-03T19:02:07.367Z,14.18
2022-09-03T19:05:19.672Z,11.02
2022-09-03T19:08:41.749Z,14.23
2022-09-03T19:11:55.789Z,14.23
2022-09-03T19:15:12.440Z,12.70
2022-09-03T19:18:29.198Z,11.73
2022-09-03T19:22:00.043Z,14.05
2022-09-03T19:25:11.727Z,10.95
2022-09-03T19:28:42.307Z,12.65
2022-09-03T19:32:28.016Z,11.57
2022-09-03T19:35:39.608Z,15.82
2022-09-03T19:39:31.954Z,13.07
2022-09-03T19:42:48.232Z,13.80
2022-09-03T19:45:58.458Z,17.33
2022-09-03T19:49:09.638Z,17.13
2022-09-03T19:52:31.471Z,13.25
2022-09-03T19:55:47.100Z,14.82
2022-09-03T19:58:58.149Z,15.05
2022-09-03T20:02:06.847Z,18.15
2022-09-03T20:05:22.533Z,17.75
2022-09-03T20:08:34.355Z,16.52
2022-09-03T20:11:26.772Z,14.40
2022-09-03T20:14:19.076Z,14.80
2022-09-03T20:17:15.127Z,14.20
2022-09-03T20:20:28.769Z,12.75
2022-09-03T20:23:34.755Z,16.95
2022-09-03T20:26:42.284Z,15.68
2022-09-03T20:29:54.482Z,14.40
2022-09-03T20:33:15.264Z,16.65
2022-09-03T20:36:23.847Z,18.30
2022-09-03T20:39:19.614Z,19.10
2022-09-03T20:42:27.339Z,19.05
2022-09-03T20:45:27.084Z,18.05
2022-09-03T20:48:26.729Z,18.67
2022-09-03T20:51:22.443Z,17.25
2022-09-03T20:54:31.884Z,16.75
2022-09-03T20:57:22.291Z,22.67
2022-09-03T21:00:19.833Z,19.35
2022-09-03T21:03:11.685Z,20.05
2022-09-03T21:06:13.531Z,20.73
2022-09-03T21:09:31.852Z,21.65
2022-09-03T21:13:01.063Z,19.65
2022-09-03T21:16:21.468Z,18.75
2022-09-03T21:19:19.244Z,18.92
2022-09-03T21:22:45.931Z,24.23
2022-09-03T21:25:47.090Z,19.13
2022-09-03T21:28:44.628Z,22.48
2022-09-03T21:31:40.478Z,20.20
2022-09-03T21:35:12.101Z,17.02
2022-09-03T21:38:06.420Z,21.52
2022-09-03T21:41:19.299Z,21.63
2022-09-03T21:44:56.072Z,22.58
2022-09-03T21:47:51.577Z,24.92
2022-09-03T21:50:43.636Z,23.17
2022-09-03T21:53:39.345Z,26.00
2022-09-03T21:56:51.591Z,28.20
2022-09-03T22:00:10.923Z,23.13
2022-09-03T22:03:09.483Z,24.15
2022-09-03T22:06:06.672Z,20.67
2022-09-03T22:09:16.684Z,27.35
2022-09-03T22:12:11.317Z,30.73
2022-09-03T22:15:02.664Z,28.20
2022-09-03T22:17:58.255Z,29.05
2022-09-03T22:20:59.782Z,28.27
2022-09-03T22:23:56.772Z,22.67
2022-09-03T22:27:04.069Z,16.60
2022-09-03T22:30:12.658Z,23.45
2022-09-03T22:33:23.543Z,22.15
2022-09-03T22:36:22.805Z,18.85
2022-09-03T22:39:18.290Z,25.15
2022-09-03T22:42:20.238Z,15.43
2022-09-03T22:46:02.560Z,15.98
2022-09-03T22:49:18.441Z,16.48
2022-09-03T22:52:22.158Z,11.32
2022-09-03T22:55:20.036Z,17.92
2022-09-03T22:58:25.503Z,17.20
2022-09-03T23:01:32.736Z,12.55
2022-09-03T23:04:24.349Z,11.80
2022-09-03T23:07:54.152Z,10.57
2022-09-03T23:11:00.984Z,13.43
2022-09-03T23:13:59.836Z,10.82
2022-09-03T23:16:58.379Z,14.30
2022-09-03T23:19:56.489Z,11.77
2022-09-03T23:22:52.893Z,14.60
2022-09-03T23:25:50.030Z,16.77
2022-09-03T23:28:40.984Z,13.30
2022-09-03T23:31:30.978Z,20.65
2022-09-03T23:34:21.217Z,18.95
2022-09-03T23:37:33.338Z,17.10
2022-09-03T23:40:29.976Z,20.67
2022-09-03T23:43:34.996Z,21.90
2022-09-03T23:46:38.733Z,22.25
2022-09-03T23:49:45.408Z,32.38
2022-09-03T23:52:54.320Z,27.27
2022-09-03T23:56:09.896Z,22.55
2022-09-03T23:59:21.630Z,20.92
